Time;durP1;ratioP1;P1;durP2;ratioP2;P2;SDS_P1;SDS_P2;PMS_P1;PMS_P2;Temp;Humidity;BMP_temperature;BMP_pressure;BME280_temperature;BME280_humidity;BME280_pressure;Samples;Min_cycle;Max_cycle;Signal;HPM_P1;HPM_P2
2022/05/30 00:00:36;;;;;;;;;;;6.00;99.90;;;;;;4995282;28;20020;-70
2022/05/30 00:03:05;;;;;;;;;;;5.90;99.90;;;;;;5005979;28;19969;-71
2022/05/30 00:05:32;;;;;;;;;;;5.80;99.90;;;;;;5006635;28;19925;-70
2022/05/30 00:07:59;;;;;;;;;;;5.70;99.90;;;;;;5005525;28;20021;-71
2022/05/30 00:10:26;;;;;;;;;;;5.60;99.90;;;;;;4999373;28;19953;-70
2022/05/30 00:12:54;;;;;;;;;;;5.40;99.90;;;;;;5003591;28;20021;-71
2022/05/30 00:15:29;;;;;;;;;;;5.40;99.90;;;;;;5009973;28;19929;-71
2022/05/30 00:17:58;;;;;;;;;;;5.40;99.90;;;;;;5004545;28;19980;-71
2022/05/30 00:20:25;;;;;;;;;;;5.40;99.90;;;;;;4999388;28;19926;-71
2022/05/30 00:22:55;;;;;;;;;;;5.40;99.90;;;;;;5003165;28;20399;-71
2022/05/30 00:25:21;;;;;;;;;;;5.40;99.90;;;;;;5003206;28;19933;-71
2022/05/30 00:27:48;;;;;;;;;;;5.50;99.90;;;;;;5005143;28;20004;-71
2022/05/30 00:30:15;;;;;;;;;;;5.60;99.90;;;;;;5003156;28;19925;-70
2022/05/30 00:32:42;;;;;;;;;;;5.50;99.90;;;;;;5007263;28;19926;-71
2022/05/30 00:35:09;;;;;;;;;;;5.50;99.90;;;;;;5007248;28;19925;-71
2022/05/30 00:37:36;;;;;;;;;;;5.50;99.90;;;;;;5010722;28;20311;-70
2022/05/30 00:40:03;;;;;;;;;;;5.50;99.90;;;;;;5005166;28;19936;-70
2022/05/30 00:42:31;;;;;;;;;;;5.50;99.90;;;;;;5006361;28;20044;-71
2022/05/30 00:44:58;;;;;;;;;;;5.50;99.90;;;;;;5005205;28;20021;-71
2022/05/30 00:47:27;;;;;;;;;;;5.40;99.90;;;;;;5004852;28;20709;-71
2022/05/30 00:49:54;;;;;;;;;;;5.30;99.90;;;;;;5005888;28;20020;-71
2022/05/30 00:52:24;;;;;;;;;;;5.30;99.90;;;;;;5002638;28;20024;-71
2022/05/30 00:54:54;;;;;;;;;;;5.20;99.90;;;;;;5007761;28;20004;-71
2022/05/30 00:57:22;;;;;;;;;;;5.20;99.90;;;;;;4996591;28;19933;-71
2022/05/30 00:59:53;;;;;;;;;;;5.00;99.90;;;;;;5005312;28;20591;-71
2022/05/30 01:02:22;;;;;;;;;;;4.80;99.90;;;;;;5008866;28;20468;-71
2022/05/30 01:07:36;;;;;;;;;;;4.60;99.90;;;;;;5009275;28;19926;-71
2022/05/30 01:10:04;;;;;;;;;;;4.50;99.90;;;;;;5003747;28;19925;-71
2022/05/30 01:12:52;;;;;;;;;;;4.50;99.90;;;;;;5004166;28;20025;-71
2022/05/30 01:15:24;;;;;;;;;;;4.40;99.90;;;;;;5006980;28;19932;-71
2022/05/30 01:18:05;;;;;;;;;;;4.30;99.90;;;;;;5008582;28;19973;-71
2022/05/30 01:20:31;;;;;;;;;;;4.20;99.90;;;;;;5008739;28;19932;-70
2022/05/30 01:23:16;;;;;;;;;;;4.10;99.90;;;;;;5005565;28;20020;-70
2022/05/30 01:26:04;;;;;;;;;;;4.00;99.90;;;;;;5006934;28;19960;-70
2022/05/30 01:28:30;;;;;;;;;;;4.00;99.90;;;;;;5004851;28;19932;-71
2022/05/30 01:30:57;;;;;;;;;;;4.00;99.90;;;;;;5005496;28;19925;-71
2022/05/30 01:33:24;;;;;;;;;;;3.90;99.90;;;;;;5004046;28;19926;-71
2022/05/30 01:35:50;;;;;;;;;;;3.80;99.90;;;;;;5010319;28;19961;-71
2022/05/30 01:38:17;;;;;;;;;;;3.70;99.90;;;;;;5005654;28;19925;-71
2022/05/30 01:40:44;;;;;;;;;;;3.60;99.90;;;;;;5001120;28;19930;-71
2022/05/30 01:43:16;;;;;;;;;;;3.70;99.90;;;;;;5001197;28;19933;-71
2022/05/30 01:45:43;;;;;;;;;;;3.70;99.90;;;;;;5003214;28;19933;-71
2022/05/30 01:48:10;;;;;;;;;;;3.70;99.90;;;;;;5001352;28;19926;-71
2022/05/30 01:50:36;;;;;;;;;;;3.70;99.90;;;;;;5001458;28;19925;-71
2022/05/30 01:53:03;;;;;;;;;;;3.60;99.90;;;;;;5000712;28;20280;-72
2022/05/30 01:55:30;;;;;;;;;;;3.60;99.90;;;;;;5006321;28;20007;-71
2022/05/30 01:57:56;;;;;;;;;;;3.70;99.90;;;;;;5004739;28;20008;-71
2022/05/30 02:00:25;;;;;;;;;;;3.80;99.90;;;;;;5003626;28;20041;-71
2022/05/30 02:02:52;;;;;;;;;;;3.90;99.90;;;;;;4998431;28;19932;-71
2022/05/30 02:05:19;;;;;;;;;;;4.00;99.90;;;;;;5007575;28;19926;-71
2022/05/30 02:07:46;;;;;;;;;;;4.10;99.90;;;;;;4997257;28;19972;-71
2022/05/30 02:10:13;;;;;;;;;;;4.10;99.90;;;;;;5003169;28;19932;-71
2022/05/30 02:12:39;;;;;;;;;;;4.10;99.90;;;;;;5010410;28;19933;-71
2022/05/30 02:15:06;;;;;;;;;;;4.10;99.90;;;;;;5008641;28;19926;-71
2022/05/30 02:17:33;;;;;;;;;;;4.10;99.90;;;;;;5000128;28;20537;-71
2022/05/30 02:20:00;;;;;;;;;;;4.10;99.90;;;;;;5013439;28;20013;-70
2022/05/30 02:22:30;;;;;;;;;;;4.10;99.90;;;;;;4999752;28;19925;-71
2022/05/30 02:24:57;;;;;;;;;;;4.00;99.90;;;;;;5001990;28;19925;-71
2022/05/30 02:27:25;;;;;;;;;;;4.00;99.90;;;;;;5006429;28;19936;-71
2022/05/30 02:29:52;;;;;;;;;;;4.00;99.90;;;;;;5004927;28;19934;-71
2022/05/30 02:32:19;;;;;;;;;;;4.00;99.90;;;;;;5010957;28;19961;-71
2022/05/30 02:37:31;;;;;;;;;;;4.00;99.90;;;;;;5009301;28;19925;-71
2022/05/30 02:39:58;;;;;;;;;;;4.00;99.90;;;;;;5009060;28;20016;-72
2022/05/30 02:42:25;;;;;;;;;;;4.00;99.90;;;;;;5010437;28;19949;-72
2022/05/30 02:44:51;;;;;;;;;;;4.00;99.90;;;;;;5006785;28;19932;-71
2022/05/30 02:47:18;;;;;;;;;;;3.90;99.90;;;;;;5009169;28;19925;-71
2022/05/30 02:49:48;;;;;;;;;;;3.90;99.90;;;;;;5011382;28;20020;-71
2022/05/30 02:52:14;;;;;;;;;;;3.80;99.90;;;;;;5004223;28;19960;-71
2022/05/30 02:54:41;;;;;;;;;;;3.80;99.90;;;;;;5013355;28;20333;-71
2022/05/30 02:57:08;;;;;;;;;;;3.80;99.90;;;;;;5004805;28;19997;-71
2022/05/30 02:59:35;;;;;;;;;;;3.70;99.90;;;;;;5005300;28;20020;-71
2022/05/30 03:02:02;;;;;;;;;;;3.70;99.90;;;;;;5004291;28;20428;-72
2022/05/30 03:04:29;;;;;;;;;;;3.60;99.90;;;;;;5004089;28;19929;-71
2022/05/30 03:06:57;;;;;;;;;;;3.50;99.90;;;;;;5007752;28;20266;-71
2022/05/30 03:09:24;;;;;;;;;;;3.40;99.90;;;;;;5004926;28;20366;-71
2022/05/30 03:11:51;;;;;;;;;;;3.40;99.90;;;;;;5007324;28;19926;-71
2022/05/30 03:14:17;;;;;;;;;;;3.30;99.90;;;;;;5005824;28;20419;-71
2022/05/30 03:16:44;;;;;;;;;;;3.20;99.90;;;;;;5003257;28;19926;-72
2022/05/30 03:19:11;;;;;;;;;;;3.20;99.90;;;;;;5009121;28;20008;-71
2022/05/30 03:21:37;;;;;;;;;;;3.10;99.90;;;;;;5004617;28;19932;-71
2022/05/30 03:24:04;;;;;;;;;;;3.10;99.90;;;;;;5005303;28;19926;-71
2022/05/30 03:26:31;;;;;;;;;;;3.00;99.90;;;;;;5009968;28;19925;-71
2022/05/30 03:28:58;;;;;;;;;;;3.00;99.90;;;;;;5004927;28;20019;-71
2022/05/30 03:31:25;;;;;;;;;;;3.00;99.90;;;;;;5004793;28;19933;-72
2022/05/30 03:33:53;;;;;;;;;;;3.10;99.90;;;;;;5018498;28;19933;-72
2022/05/30 03:36:25;;;;;;;;;;;3.10;99.90;;;;;;5008757;28;19932;-72
2022/05/30 03:38:52;;;;;;;;;;;3.10;99.90;;;;;;5007941;28;19930;-72
2022/05/30 03:41:19;;;;;;;;;;;3.20;99.90;;;;;;5001832;28;20399;-72
2022/05/30 03:43:46;;;;;;;;;;;3.30;99.90;;;;;;5009709;28;19926;-72
2022/05/30 03:46:18;;;;;;;;;;;3.30;99.90;;;;;;5004138;28;19984;-71
2022/05/30 03:48:45;;;;;;;;;;;3.40;99.90;;;;;;5008856;28;19933;-72
2022/05/30 03:51:12;;;;;;;;;;;3.50;99.90;;;;;;5014542;28;19926;-71
2022/05/30 03:53:40;;;;;;;;;;;3.60;99.90;;;;;;5008000;28;19939;-71
2022/05/30 03:56:07;;;;;;;;;;;3.80;99.90;;;;;;5005428;28;20024;-72
2022/05/30 03:58:33;;;;;;;;;;;3.90;99.90;;;;;;5011801;28;19926;-71
2022/05/30 04:01:00;;;;;;;;;;;3.90;99.90;;;;;;5006902;28;19926;-71
2022/05/30 04:03:29;;;;;;;;;;;4.00;99.90;;;;;;5003984;28;20464;-71
2022/05/30 04:05:56;;;;;;;;;;;3.90;99.90;;;;;;5007536;28;19930;-71
2022/05/30 04:08:23;;;;;;;;;;;3.90;99.90;;;;;;5011647;28;19930;-71
2022/05/30 04:10:49;;;;;;;;;;;3.90;99.90;;;;;;5007949;28;20028;-71
2022/05/30 04:13:16;;;;;;;;;;;4.00;99.90;;;;;;5005605;28;19953;-71
2022/05/30 04:15:43;;;;;;;;;;;4.00;99.90;;;;;;5007034;28;20032;-71
2022/05/30 04:18:09;;;;;;;;;;;4.10;99.90;;;;;;5008223;28;19991;-71
2022/05/30 04:20:36;;;;;;;;;;;4.10;99.90;;;;;;5006184;28;19940;-71
2022/05/30 04:23:03;;;;;;;;;;;4.20;99.90;;;;;;5007574;28;19925;-71
2022/05/30 04:25:29;;;;;;;;;;;4.20;99.90;;;;;;5008703;28;19925;-71
2022/05/30 04:27:56;;;;;;;;;;;4.30;99.90;;;;;;5003539;28;19926;-71
2022/05/30 04:30:23;;;;;;;;;;;4.40;99.90;;;;;;5008487;28;20376;-70
2022/05/30 04:32:50;;;;;;;;;;;4.60;99.90;;;;;;5005380;28;19937;-71
2022/05/30 04:35:18;;;;;;;;;;;4.70;99.90;;;;;;5007217;28;19926;-71
2022/05/30 04:37:49;;;;;;;;;;;4.90;99.90;;;;;;5008213;28;19925;-71
2022/05/30 04:40:18;;;;;;;;;;;5.90;99.90;;;;;;5005254;28;19925;-71
2022/05/30 04:42:45;;;;;;;;;;;7.60;99.90;;;;;;5009224;28;20207;-71
2022/05/30 04:45:12;;;;;;;;;;;9.30;99.90;;;;;;5003809;28;19926;-70
2022/05/30 04:47:39;;;;;;;;;;;10.90;99.90;;;;;;4999602;28;19940;-71
2022/05/30 04:50:08;;;;;;;;;;;12.30;99.90;;;;;;4999633;28;19925;-69
2022/05/30 04:52:34;;;;;;;;;;;13.60;99.90;;;;;;5002671;28;19926;-68
2022/05/30 04:55:01;;;;;;;;;;;14.80;99.90;;;;;;5005742;28;20522;-68
2022/05/30 04:57:28;;;;;;;;;;;15.50;99.90;;;;;;4998643;28;19929;-68
2022/05/30 04:59:56;;;;;;;;;;;16.20;99.90;;;;;;5008240;28;20288;-68
2022/05/30 05:02:23;;;;;;;;;;;16.80;99.90;;;;;;5016739;28;19932;-68
2022/05/30 05:04:49;;;;;;;;;;;17.60;99.90;;;;;;5005391;28;19979;-68
2022/05/30 05:07:16;;;;;;;;;;;18.30;99.90;;;;;;5003736;28;19939;-69
2022/05/30 05:09:51;;;;;;;;;;;18.80;99.90;;;;;;5007583;28;20576;-69
2022/05/30 05:12:18;;;;;;;;;;;19.20;99.90;;;;;;5002579;28;20024;-69
2022/05/30 05:14:44;;;;;;;;;;;19.30;99.90;;;;;;5010033;28;19925;-69
2022/05/30 05:17:13;;;;;;;;;;;19.20;99.90;;;;;;5003281;28;20404;-69
2022/05/30 05:19:41;;;;;;;;;;;19.50;99.90;;;;;;5013930;28;19979;-70
2022/05/30 05:22:12;;;;;;;;;;;19.30;99.90;;;;;;5009626;28;19925;-67
2022/05/30 05:24:39;;;;;;;;;;;19.60;99.90;;;;;;5003353;28;19943;-67
2022/05/30 05:27:14;;;;;;;;;;;20.00;99.90;;;;;;5011098;28;20291;-68
2022/05/30 05:29:40;;;;;;;;;;;20.20;99.90;;;;;;5037745;28;19967;-68
2022/05/30 05:32:07;;;;;;;;;;;20.00;99.90;;;;;;5004895;28;19926;-68
2022/05/30 05:34:34;;;;;;;;;;;18.70;99.90;;;;;;5004474;28;20307;-68
2022/05/30 05:37:01;;;;;;;;;;;18.00;99.90;;;;;;5009129;28;19935;-68
2022/05/30 05:39:27;;;;;;;;;;;16.80;99.90;;;;;;5005317;28;19925;-69
2022/05/30 05:41:54;;;;;;;;;;;18.00;99.90;;;;;;5007331;28;19925;-68
2022/05/30 05:44:21;;;;;;;;;;;19.20;99.90;;;;;;5008219;28;19925;-68
2022/05/30 05:46:47;;;;;;;;;;;18.90;99.90;;;;;;5010818;28;19925;-68
2022/05/30 05:49:17;;;;;;;;;;;18.00;99.90;;;;;;5006094;28;20016;-68
2022/05/30 05:51:44;;;;;;;;;;;18.20;99.90;;;;;;5000906;28;20067;-68
2022/05/30 05:54:11;;;;;;;;;;;18.40;99.90;;;;;;4997094;28;19934;-68
2022/05/30 05:56:37;;;;;;;;;;;18.00;99.90;;;;;;5001969;28;19925;-68
2022/05/30 05:59:04;;;;;;;;;;;17.50;99.90;;;;;;5007090;28;20459;-69
2022/05/30 06:01:32;;;;;;;;;;;16.70;99.90;;;;;;5009037;28;19926;-69
2022/05/30 06:04:00;;;;;;;;;;;17.00;99.90;;;;;;5010744;28;22609;-60
2022/05/30 06:06:27;;;;;;;;;;;18.10;99.90;;;;;;5010332;28;19929;-62
2022/05/30 06:08:56;;;;;;;;;;;19.20;99.90;;;;;;5008402;28;19987;-61
2022/05/30 06:11:24;;;;;;;;;;;19.90;99.90;;;;;;5005637;28;19929;-62
2022/05/30 06:13:51;;;;;;;;;;;20.30;99.90;;;;;;5007094;28;19925;-62
2022/05/30 06:16:20;;;;;;;;;;;20.80;99.90;;;;;;4997174;28;19952;-62
2022/05/30 06:18:48;;;;;;;;;;;20.70;99.90;;;;;;5005665;28;20401;-61
2022/05/30 06:21:15;;;;;;;;;;;20.90;99.90;;;;;;5005137;28;20044;-60
2022/05/30 06:23:44;;;;;;;;;;;21.20;99.90;;;;;;5009599;28;19977;-61
2022/05/30 06:26:11;;;;;;;;;;;21.00;99.90;;;;;;5006908;28;20446;-60
2022/05/30 06:28:43;;;;;;;;;;;21.30;99.90;;;;;;5012279;28;20324;-60
2022/05/30 06:31:12;;;;;;;;;;;21.60;99.90;;;;;;5003302;28;19929;-63
2022/05/30 06:33:46;;;;;;;;;;;21.70;99.90;;;;;;5005419;28;20018;-62
2022/05/30 06:36:14;;;;;;;;;;;22.00;99.90;;;;;;5004248;28;19934;-61
2022/05/30 06:38:42;;;;;;;;;;;21.20;99.90;;;;;;5006148;28;20027;-61
2022/05/30 06:41:12;;;;;;;;;;;21.10;99.90;;;;;;5005650;28;19932;-61
2022/05/30 06:43:39;;;;;;;;;;;20.80;99.90;;;;;;5007747;28;20012;-62
2022/05/30 06:46:06;;;;;;;;;;;20.00;99.90;;;;;;5004826;28;19929;-61
2022/05/30 06:48:33;;;;;;;;;;;19.80;99.90;;;;;;5005571;28;19964;-61
2022/05/30 06:51:04;;;;;;;;;;;20.40;99.90;;;;;;5004214;28;19926;-61
2022/05/30 06:53:31;;;;;;;;;;;20.30;99.90;;;;;;5010045;28;19948;-61
2022/05/30 06:55:57;;;;;;;;;;;19.90;99.90;;;;;;5007069;28;19925;-61
2022/05/30 06:58:25;;;;;;;;;;;19.80;99.90;;;;;;5003967;28;20028;-61
2022/05/30 07:00:52;;;;;;;;;;;19.30;99.90;;;;;;5006336;28;19936;-61
2022/05/30 07:03:19;;;;;;;;;;;19.10;99.90;;;;;;5008261;28;19977;-61
2022/05/30 07:05:48;;;;;;;;;;;19.40;99.90;;;;;;5005480;28;19926;-60
2022/05/30 07:08:14;;;;;;;;;;;20.20;99.90;;;;;;5006216;28;19961;-61
2022/05/30 07:10:41;;;;;;;;;;;21.00;99.90;;;;;;5005270;28;19940;-60
2022/05/30 07:13:08;;;;;;;;;;;21.10;99.90;;;;;;5007970;28;20021;-60
2022/05/30 07:15:36;;;;;;;;;;;21.60;99.90;;;;;;5001521;28;19925;-60
2022/05/30 07:18:09;;;;;;;;;;;22.50;99.50;;;;;;5004096;28;19933;-61
2022/05/30 07:20:35;;;;;;;;;;;22.60;99.50;;;;;;5002151;28;19947;-60
2022/05/30 07:23:02;;;;;;;;;;;22.40;99.20;;;;;;5004991;28;19948;-61
2022/05/30 07:25:29;;;;;;;;;;;22.60;99.50;;;;;;5007887;28;19926;-62
2022/05/30 07:27:58;;;;;;;;;;;22.00;98.70;;;;;;5006259;28;20583;-59
2022/05/30 07:30:30;;;;;;;;;;;21.70;99.10;;;;;;5003562;28;19925;-61
2022/05/30 07:32:57;;;;;;;;;;;21.40;99.30;;;;;;5007356;28;19929;-59
2022/05/30 07:35:23;;;;;;;;;;;21.50;99.00;;;;;;5004676;28;19925;-59
2022/05/30 07:37:50;;;;;;;;;;;21.90;99.10;;;;;;5004195;28;19933;-60
2022/05/30 07:40:17;;;;;;;;;;;22.10;98.90;;;;;;5003799;28;20339;-60
2022/05/30 07:42:44;;;;;;;;;;;22.10;98.60;;;;;;5008479;28;19925;-60
2022/05/30 07:45:11;;;;;;;;;;;21.80;98.60;;;;;;4998556;28;20016;-59
2022/05/30 07:47:38;;;;;;;;;;;21.70;99.30;;;;;;5000787;28;19925;-59
2022/05/30 07:50:05;;;;;;;;;;;22.00;99.20;;;;;;5007924;28;19932;-73
2022/05/30 07:52:32;;;;;;;;;;;21.80;98.40;;;;;;4996409;28;19930;-72
2022/05/30 07:55:02;;;;;;;;;;;21.80;98.10;;;;;;5000994;28;19933;-69
2022/05/30 08:00:14;;;;;;;;;;;20.90;98.00;;;;;;5004837;28;20506;-71
2022/05/30 08:02:41;;;;;;;;;;;20.30;98.60;;;;;;5003425;28;19975;-71
2022/05/30 08:05:14;;;;;;;;;;;20.80;98.90;;;;;;5007370;28;19925;-72
2022/05/30 08:07:44;;;;;;;;;;;21.50;98.20;;;;;;4997814;28;19930;-68
2022/05/30 08:10:12;;;;;;;;;;;21.60;97.40;;;;;;5003403;28;19971;-69
2022/05/30 08:12:39;;;;;;;;;;;21.80;97.80;;;;;;5007509;28;19932;-70
2022/05/30 08:15:06;;;;;;;;;;;21.40;98.00;;;;;;4999351;28;19934;-69
2022/05/30 08:17:40;;;;;;;;;;;21.40;97.50;;;;;;5006494;28;19932;-72
2022/05/30 08:20:11;;;;;;;;;;;21.00;97.80;;;;;;5002825;28;19926;-71
2022/05/30 08:22:38;;;;;;;;;;;21.30;97.40;;;;;;5013492;28;20020;-71
2022/05/30 08:25:07;;;;;;;;;;;21.00;97.30;;;;;;5007680;28;19936;-67
2022/05/30 08:27:36;;;;;;;;;;;20.90;97.20;;;;;;5002454;28;19940;-68
2022/05/30 08:30:04;;;;;;;;;;;20.50;98.00;;;;;;5012476;28;19972;-67
2022/05/30 08:32:32;;;;;;;;;;;19.80;97.90;;;;;;5017249;28;19926;-71
2022/05/30 08:35:00;;;;;;;;;;;19.00;98.60;;;;;;5012257;28;19956;-68
2022/05/30 08:37:30;;;;;;;;;;;18.80;99.30;;;;;;5002063;28;20028;-70
2022/05/30 08:42:45;;;;;;;;;;;18.00;99.80;;;;;;5013531;28;20586;-72
2022/05/30 08:45:16;;;;;;;;;;;17.60;99.90;;;;;;5007548;28;19932;-72
2022/05/30 08:47:51;;;;;;;;;;;17.80;99.90;;;;;;5007167;28;19930;-72
2022/05/30 08:50:24;;;;;;;;;;;18.00;99.90;;;;;;5006526;28;19933;-71
2022/05/30 08:52:54;;;;;;;;;;;18.30;99.90;;;;;;5011786;28;19925;-71
2022/05/30 08:55:30;;;;;;;;;;;18.40;99.90;;;;;;5007281;28;20588;-73
2022/05/30 08:58:09;;;;;;;;;;;18.40;99.90;;;;;;5009919;28;19936;-69
2022/05/30 09:00:55;;;;;;;;;;;18.60;99.90;;;;;;5006339;28;19932;-70
2022/05/30 09:03:25;;;;;;;;;;;18.30;99.40;;;;;;4999104;28;19940;-72
2022/05/30 09:05:57;;;;;;;;;;;18.50;99.60;;;;;;5003329;28;20540;-68
2022/05/30 09:08:26;;;;;;;;;;;18.80;99.50;;;;;;4987208;28;20372;-69
2022/05/30 09:11:02;;;;;;;;;;;18.90;99.80;;;;;;5001037;28;19968;-70
2022/05/30 09:13:31;;;;;;;;;;;19.50;99.30;;;;;;5008924;28;20689;-70
2022/05/30 09:16:34;;;;;;;;;;;19.90;99.10;;;;;;5001187;28;19980;-67
2022/05/30 09:19:06;;;;;;;;;;;20.10;98.40;;;;;;4969591;28;19958;-67
2022/05/30 09:21:33;;;;;;;;;;;19.90;98.40;;;;;;4970072;28;19926;-65
2022/05/30 09:24:00;;;;;;;;;;;20.10;98.20;;;;;;4970145;28;20392;-67
2022/05/30 09:26:42;;;;;;;;;;;19.70;98.00;;;;;;4970917;28;20439;-68
2022/05/30 09:29:12;;;;;;;;;;;20.00;98.00;;;;;;4972244;28;19937;-69
2022/05/30 09:31:48;;;;;;;;;;;20.30;97.70;;;;;;4970696;28;19944;-68
2022/05/30 09:34:29;;;;;;;;;;;20.40;97.70;;;;;;4955576;28;19926;-68
2022/05/30 09:36:56;;;;;;;;;;;20.50;97.20;;;;;;4972259;28;20061;-70
2022/05/30 09:39:22;;;;;;;;;;;20.30;97.10;;;;;;4967102;28;20301;-68
2022/05/30 09:42:01;;;;;;;;;;;19.70;96.80;;;;;;4963799;28;20029;-67
2022/05/30 09:44:42;;;;;;;;;;;19.00;97.30;;;;;;4968944;28;19981;-68
2022/05/30 09:47:16;;;;;;;;;;;18.90;97.90;;;;;;4968684;28;19974;-68
2022/05/30 09:49:47;;;;;;;;;;;18.80;98.30;;;;;;4971392;28;20349;-67
2022/05/30 09:52:32;;;;;;;;;;;18.80;98.10;;;;;;4975857;28;19957;-68
2022/05/30 09:55:01;;;;;;;;;;;18.50;97.80;;;;;;4995392;28;19930;-69
2022/05/30 09:57:41;;;;;;;;;;;18.30;97.70;;;;;;5007991;28;19965;-68
2022/05/30 10:00:13;;;;;;;;;;;18.30;98.50;;;;;;5007011;28;19933;-68
2022/05/30 10:02:41;;;;;;;;;;;18.50;98.70;;;;;;5005296;28;19934;-68
2022/05/30 10:05:14;;;;;;;;;;;19.20;98.50;;;;;;5004978;28;20028;-69
2022/05/30 10:07:52;;;;;;;;;;;19.50;97.60;;;;;;5003776;28;19953;-68
2022/05/30 10:10:22;;;;;;;;;;;19.00;97.80;;;;;;5001870;28;19934;-68
2022/05/30 10:12:53;;;;;;;;;;;19.00;97.70;;;;;;5005863;28;19926;-68
2022/05/30 10:15:23;;;;;;;;;;;19.10;97.70;;;;;;5008857;28;20448;-68
2022/05/30 10:17:50;;;;;;;;;;;19.20;97.70;;;;;;5008213;28;19925;-67
2022/05/30 10:20:23;;;;;;;;;;;19.50;97.90;;;;;;5008452;28;19934;-68
2022/05/30 10:28:39;;;;;;;;;;;20.60;97.30;;;;;;5006176;28;20052;-68
2022/05/30 10:31:13;;;;;;;;;;;21.00;97.00;;;;;;5002254;28;19926;-68
2022/05/30 10:33:45;;;;;;;;;;;21.20;96.20;;;;;;5006270;28;19933;-65
2022/05/30 10:36:21;;;;;;;;;;;20.90;95.90;;;;;;5010677;28;19925;-68
2022/05/30 10:38:48;;;;;;;;;;;20.80;96.10;;;;;;5006084;28;20345;-66
2022/05/30 10:41:18;;;;;;;;;;;20.80;95.80;;;;;;5005861;28;19929;-66
2022/05/30 10:44:00;;;;;;;;;;;20.80;95.60;;;;;;5008171;28;20005;-65
2022/05/30 10:46:33;;;;;;;;;;;21.10;95.60;;;;;;5006540;28;20424;-68
2022/05/30 10:49:05;;;;;;;;;;;20.90;95.00;;;;;;5002061;28;19932;-67
2022/05/30 10:51:36;;;;;;;;;;;21.10;95.00;;;;;;5009448;28;19932;-66
2022/05/30 10:54:19;;;;;;;;;;;21.20;95.10;;;;;;5003129;28;19984;-66
2022/05/30 10:56:48;;;;;;;;;;;21.20;95.10;;;;;;5007900;28;19926;-67
2022/05/30 10:59:20;;;;;;;;;;;21.40;95.30;;;;;;5009038;28;19926;-67
2022/05/30 11:01:49;;;;;;;;;;;22.10;94.90;;;;;;5003919;28;20323;-67
2022/05/30 11:04:28;;;;;;;;;;;22.60;94.50;;;;;;5006088;28;19976;-68
2022/05/30 11:07:00;;;;;;;;;;;23.30;94.10;;;;;;4998349;28;19933;-67
2022/05/30 11:09:36;;;;;;;;;;;23.50;94.60;;;;;;5006080;28;19929;-67
2022/05/30 11:12:06;;;;;;;;;;;23.60;93.40;;;;;;5004502;28;20033;-67
2022/05/30 11:14:51;;;;;;;;;;;23.90;92.90;;;;;;5004399;28;19929;-66
2022/05/30 11:17:36;;;;;;;;;;;24.00;92.70;;;;;;5001825;28;19936;-66
2022/05/30 11:20:07;;;;;;;;;;;24.20;90.90;;;;;;5006305;28;19966;-65
2022/05/30 11:22:38;;;;;;;;;;;24.10;90.30;;;;;;5004771;28;19925;-66
2022/05/30 11:25:07;;;;;;;;;;;24.50;91.40;;;;;;5003277;28;19937;-65
2022/05/30 11:27:36;;;;;;;;;;;24.60;90.80;;;;;;5006367;28;19925;-66
2022/05/30 11:30:15;;;;;;;;;;;25.00;90.80;;;;;;5005125;28;19929;-67
2022/05/30 11:32:50;;;;;;;;;;;25.90;90.30;;;;;;5004359;28;19929;-68
2022/05/30 11:35:35;;;;;;;;;;;26.40;89.40;;;;;;5001657;28;19929;-66
2022/05/30 11:38:35;;;;;;;;;;;26.10;88.30;;;;;;5002347;28;20430;-60
2022/05/30 11:41:21;;;;;;;;;;;24.60;91.90;;;;;;4987706;28;19972;-61
2022/05/30 11:43:47;;;;;;;;;;;22.40;93.00;;;;;;4982978;28;20033;-60
2022/05/30 11:46:29;;;;;;;;;;;21.00;93.70;;;;;;4990108;28;20025;-60
2022/05/30 11:48:58;;;;;;;;;;;20.50;94.90;;;;;;4971166;28;19933;-60
2022/05/30 11:51:25;;;;;;;;;;;20.10;95.00;;;;;;4982382;28;20044;-60
2022/05/30 11:53:52;;;;;;;;;;;20.10;94.10;;;;;;4972237;28;20016;-59
2022/05/30 11:56:37;;;;;;;;;;;19.90;93.60;;;;;;4975570;28;19934;-60
2022/05/30 11:59:04;;;;;;;;;;;19.80;93.90;;;;;;4984724;28;19929;-60
2022/05/30 12:01:31;;;;;;;;;;;19.60;94.50;;;;;;4985900;28;19933;-60
2022/05/30 12:04:17;;;;;;;;;;;19.60;94.60;;;;;;4980160;28;20024;-60
2022/05/30 12:06:50;;;;;;;;;;;19.40;94.70;;;;;;4985693;28;20308;-60
2022/05/30 12:09:35;;;;;;;;;;;20.20;94.70;;;;;;4980416;28;20550;-61
2022/05/30 12:12:05;;;;;;;;;;;20.80;94.90;;;;;;4977539;28;19969;-61
2022/05/30 12:14:52;;;;;;;;;;;20.30;94.80;;;;;;4982220;28;20005;-69
2022/05/30 12:17:38;;;;;;;;;;;20.10;94.20;;;;;;4995650;28;20004;-72
2022/05/30 12:25:52;;;;;;;;;;;20.20;95.50;;;;;;5002577;28;20446;-72
2022/05/30 12:28:29;;;;;;;;;;;21.50;94.00;;;;;;5010535;28;22184;-67
2022/05/30 12:30:58;;;;;;;;;;;22.00;93.60;;;;;;5003812;28;20486;-72
2022/05/30 12:33:28;;;;;;;;;;;22.70;92.90;;;;;;5001794;28;20016;-66
2022/05/30 12:36:10;;;;;;;;;;;22.80;92.90;;;;;;5003300;28;19933;-60
2022/05/30 12:38:55;;;;;;;;;;;22.30;92.50;;;;;;4998517;28;20606;-62
2022/05/30 12:41:22;;;;;;;;;;;21.60;92.80;;;;;;4992291;28;19929;-61
2022/05/30 12:43:51;;;;;;;;;;;21.80;93.20;;;;;;5004296;28;20034;-59
2022/05/30 12:46:20;;;;;;;;;;;21.90;92.50;;;;;;5006746;28;19929;-61
2022/05/30 12:49:04;;;;;;;;;;;21.50;92.30;;;;;;5009822;28;19984;-58
2022/05/30 12:51:41;;;;;;;;;;;21.10;92.20;;;;;;5037787;28;19925;-59
2022/05/30 12:54:08;;;;;;;;;;;20.90;93.00;;;;;;5001805;28;20028;-59
2022/05/30 12:56:56;;;;;;;;;;;20.80;93.30;;;;;;4995912;28;19933;-58
2022/05/30 12:59:29;;;;;;;;;;;21.00;93.20;;;;;;4993994;28;19960;-59
2022/05/30 13:01:59;;;;;;;;;;;21.10;92.30;;;;;;5002960;28;19925;-60
2022/05/30 13:04:35;;;;;;;;;;;21.30;92.50;;;;;;5002598;28;19926;-60
2022/05/30 13:07:01;;;;;;;;;;;21.20;91.60;;;;;;5006009;28;19929;-65
2022/05/30 13:09:33;;;;;;;;;;;20.50;92.20;;;;;;5005391;28;19973;-66
2022/05/30 13:12:17;;;;;;;;;;;20.30;92.30;;;;;;4996948;28;20032;-65
2022/05/30 13:14:57;;;;;;;;;;;20.60;92.50;;;;;;5003707;28;20389;-60
2022/05/30 13:17:42;;;;;;;;;;;21.70;92.10;;;;;;5002879;28;19965;-66
2022/05/30 13:20:11;;;;;;;;;;;22.60;90.80;;;;;;5001965;28;19932;-65
2022/05/30 13:22:37;;;;;;;;;;;23.40;90.80;;;;;;5003040;28;19944;-66
2022/05/30 13:25:08;;;;;;;;;;;23.90;90.60;;;;;;4999109;28;20533;-65
2022/05/30 13:27:34;;;;;;;;;;;24.60;90.30;;;;;;5002484;28;20576;-66
2022/05/30 13:30:06;;;;;;;;;;;24.80;90.40;;;;;;5007046;28;19929;-66
2022/05/30 13:32:34;;;;;;;;;;;24.40;90.40;;;;;;5008903;28;20005;-66
2022/05/30 13:35:06;;;;;;;;;;;23.70;89.60;;;;;;5003202;28;19925;-65
2022/05/30 13:37:35;;;;;;;;;;;22.80;90.20;;;;;;5004539;28;19930;-67
2022/05/30 13:40:04;;;;;;;;;;;22.60;90.40;;;;;;5002367;28;19926;-65
2022/05/30 13:42:54;;;;;;;;;;;22.20;90.30;;;;;;5004050;28;19925;-64
2022/05/30 13:45:43;;;;;;;;;;;22.00;90.30;;;;;;5006055;28;20384;-65
2022/05/30 13:48:17;;;;;;;;;;;22.10;90.10;;;;;;4999747;28;20008;-67
2022/05/30 13:51:03;;;;;;;;;;;22.40;90.30;;;;;;5002192;28;20012;-65
2022/05/30 13:53:41;;;;;;;;;;;23.10;88.90;;;;;;5003179;28;19926;-65
2022/05/30 13:56:22;;;;;;;;;;;23.70;89.90;;;;;;5007259;28;19955;-64
2022/05/30 13:58:51;;;;;;;;;;;24.20;89.30;;;;;;5006313;28;20363;-65
2022/05/30 14:01:21;;;;;;;;;;;23.90;88.40;;;;;;5037143;28;19932;-64
2022/05/30 14:03:50;;;;;;;;;;;24.00;89.10;;;;;;5003196;28;20028;-68
2022/05/30 14:06:45;;;;;;;;;;;24.40;88.20;;;;;;5002886;28;19936;-65
2022/05/30 14:09:13;;;;;;;;;;;24.70;88.40;;;;;;5005392;28;20025;-64
2022/05/30 14:11:42;;;;;;;;;;;24.90;88.40;;;;;;5013777;28;19940;-66
2022/05/30 14:14:32;;;;;;;;;;;25.50;87.30;;;;;;5005468;28;20008;-63
2022/05/30 14:17:02;;;;;;;;;;;25.50;85.70;;;;;;5011936;28;19925;-64
2022/05/30 14:19:37;;;;;;;;;;;25.70;87.20;;;;;;5013691;28;19980;-64
2022/05/30 14:22:20;;;;;;;;;;;25.90;85.70;;;;;;5007650;28;19969;-65
2022/05/30 14:24:59;;;;;;;;;;;25.60;86.60;;;;;;5003405;28;19925;-65
2022/05/30 14:27:29;;;;;;;;;;;25.40;86.00;;;;;;5007452;28;19926;-66
2022/05/30 14:30:00;;;;;;;;;;;24.40;86.20;;;;;;5000250;28;19933;-65
2022/05/30 14:32:32;;;;;;;;;;;22.50;86.80;;;;;;5012542;28;20004;-65
2022/05/30 14:35:07;;;;;;;;;;;22.40;87.70;;;;;;5002028;28;20505;-65
2022/05/30 14:37:36;;;;;;;;;;;23.80;89.40;;;;;;5007952;28;19968;-67
2022/05/30 14:40:09;;;;;;;;;;;24.80;86.80;;;;;;5008871;28;19979;-67
2022/05/30 14:42:42;;;;;;;;;;;25.40;85.60;;;;;;5009760;28;19926;-68
2022/05/30 14:45:11;;;;;;;;;;;26.40;84.70;;;;;;5007772;28;20560;-66
2022/05/30 14:47:41;;;;;;;;;;;27.50;84.20;;;;;;5005097;28;19930;-66
2022/05/30 14:50:10;;;;;;;;;;;27.70;83.30;;;;;;5006997;28;20432;-65
2022/05/30 14:52:38;;;;;;;;;;;27.70;82.60;;;;;;5007483;28;19925;-66
2022/05/30 14:55:09;;;;;;;;;;;27.80;80.90;;;;;;5006519;28;20384;-69
2022/05/30 14:57:45;;;;;;;;;;;28.00;81.20;;;;;;5007051;28;19929;-69
2022/05/30 15:00:22;;;;;;;;;;;28.50;80.80;;;;;;4999961;28;19940;-70
2022/05/30 15:05:35;;;;;;;;;;;28.80;79.40;;;;;;5011420;28;20016;-68